sensor_id;sensor_type;location;lat;lon;timestamp;temperature;humidity
65478;SHT31;53678;39.642;22.430;2022-08-18T00:02:15;27.17;54.47
65478;SHT31;53678;39.642;22.430;2022-08-18T00:04:42;27.24;54.30
65478;SHT31;53678;39.642;22.430;2022-08-18T00:07:11;27.23;54.33
65478;SHT31;53678;39.642;22.430;2022-08-18T00:09:38;27.30;54.36
65478;SHT31;53678;39.642;22.430;2022-08-18T00:12:29;27.00;55.19
65478;SHT31;53678;39.642;22.430;2022-08-18T00:14:54;26.51;57.59
65478;SHT31;53678;39.642;22.430;2022-08-18T00:17:21;25.98;59.45
65478;SHT31;53678;39.642;22.430;2022-08-18T00:19:47;26.24;58.86
65478;SHT31;53678;39.642;22.430;2022-08-18T00:22:17;26.31;58.46
65478;SHT31;53678;39.642;22.430;2022-08-18T00:24:45;26.45;57.71
65478;SHT31;53678;39.642;22.430;2022-08-18T00:27:11;26.25;57.95
65478;SHT31;53678;39.642;22.430;2022-08-18T00:29:37;26.36;57.58
65478;SHT31;53678;39.642;22.430;2022-08-18T00:32:14;26.20;57.38
65478;SHT31;53678;39.642;22.430;2022-08-18T00:34:40;26.31;57.20
65478;SHT31;53678;39.642;22.430;2022-08-18T00:37:06;26.39;57.00
65478;SHT31;53678;39.642;22.430;2022-08-18T00:39:32;26.48;56.99
65478;SHT31;53678;39.642;22.430;2022-08-18T00:41:59;26.58;57.09
65478;SHT31;53678;39.642;22.430;2022-08-18T00:44:36;26.60;55.87
65478;SHT31;53678;39.642;22.430;2022-08-18T00:47:02;26.73;52.78
65478;SHT31;53678;39.642;22.430;2022-08-18T00:49:28;26.85;52.63
65478;SHT31;53678;39.642;22.430;2022-08-18T00:51:55;26.93;52.09
65478;SHT31;53678;39.642;22.430;2022-08-18T00:54:24;27.10;51.07
65478;SHT31;53678;39.642;22.430;2022-08-18T00:56:54;27.08;50.99
65478;SHT31;53678;39.642;22.430;2022-08-18T01:02:01;27.23;50.50
65478;SHT31;53678;39.642;22.430;2022-08-18T01:04:44;27.30;49.99
65478;SHT31;53678;39.642;22.430;2022-08-18T01:07:18;27.31;49.78
65478;SHT31;53678;39.642;22.430;2022-08-18T01:09:47;26.15;55.51
65478;SHT31;53678;39.642;22.430;2022-08-18T01:12:14;26.14;54.98
65478;SHT31;53678;39.642;22.430;2022-08-18T01:14:40;26.35;54.42
65478;SHT31;53678;39.642;22.430;2022-08-18T01:17:06;26.56;53.90
65478;SHT31;53678;39.642;22.430;2022-08-18T01:19:50;25.60;58.54
65478;SHT31;53678;39.642;22.430;2022-08-18T01:22:40;25.87;58.07
65478;SHT31;53678;39.642;22.430;2022-08-18T01:25:08;26.07;56.59
65478;SHT31;53678;39.642;22.430;2022-08-18T01:27:53;26.24;54.76
65478;SHT31;53678;39.642;22.430;2022-08-18T01:30:22;26.44;50.89
65478;SHT31;53678;39.642;22.430;2022-08-18T01:32:51;26.44;54.57
65478;SHT31;53678;39.642;22.430;2022-08-18T01:35:18;26.59;53.54
65478;SHT31;53678;39.642;22.430;2022-08-18T01:37:46;26.49;55.52
65478;SHT31;53678;39.642;22.430;2022-08-18T01:40:14;25.87;57.50
65478;SHT31;53678;39.642;22.430;2022-08-18T01:42:40;25.45;58.34
65478;SHT31;53678;39.642;22.430;2022-08-18T01:45:12;25.66;58.17
65478;SHT31;53678;39.642;22.430;2022-08-18T01:47:39;25.81;57.47
65478;SHT31;53678;39.642;22.430;2022-08-18T01:50:06;25.79;57.23
65478;SHT31;53678;39.642;22.430;2022-08-18T01:52:33;25.83;57.34
65478;SHT31;53678;39.642;22.430;2022-08-18T01:55:00;25.49;58.02
65478;SHT31;53678;39.642;22.430;2022-08-18T01:57:26;25.40;56.25
65478;SHT31;53678;39.642;22.430;2022-08-18T01:59:53;24.82;57.83
65478;SHT31;53678;39.642;22.430;2022-08-18T02:02:25;24.75;57.49
65478;SHT31;53678;39.642;22.430;2022-08-18T02:04:55;24.85;57.73
65478;SHT31;53678;39.642;22.430;2022-08-18T02:07:24;25.14;57.26
65478;SHT31;53678;39.642;22.430;2022-08-18T02:09:49;25.35;56.18
65478;SHT31;53678;39.642;22.430;2022-08-18T02:12:15;25.16;56.56
65478;SHT31;53678;39.642;22.430;2022-08-18T02:14:42;24.96;56.85
65478;SHT31;53678;39.642;22.430;2022-08-18T02:17:10;24.91;57.23
65478;SHT31;53678;39.642;22.430;2022-08-18T02:19:42;25.11;56.87
65478;SHT31;53678;39.642;22.430;2022-08-18T02:22:10;25.05;56.78
65478;SHT31;53678;39.642;22.430;2022-08-18T02:24:36;24.90;57.16
65478;SHT31;53678;39.642;22.430;2022-08-18T02:27:03;25.01;56.71
65478;SHT31;53678;39.642;22.430;2022-08-18T02:29:29;25.02;56.69
65478;SHT31;53678;39.642;22.430;2022-08-18T02:31:55;25.21;56.26
65478;SHT31;53678;39.642;22.430;2022-08-18T02:34:20;25.23;55.94
65478;SHT31;53678;39.642;22.430;2022-08-18T02:36:46;25.21;55.89
65478;SHT31;53678;39.642;22.430;2022-08-18T02:39:13;25.09;55.68
65478;SHT31;53678;39.642;22.430;2022-08-18T02:41:39;25.15;55.66
65478;SHT31;53678;39.642;22.430;2022-08-18T02:44:06;25.16;55.26
65478;SHT31;53678;39.642;22.430;2022-08-18T02:46:32;25.28;54.78
65478;SHT31;53678;39.642;22.430;2022-08-18T02:48:59;25.40;53.62
65478;SHT31;53678;39.642;22.430;2022-08-18T02:51:25;25.49;53.71
65478;SHT31;53678;39.642;22.430;2022-08-18T02:53:51;25.83;52.92
65478;SHT31;53678;39.642;22.430;2022-08-18T02:56:20;25.02;55.02
65478;SHT31;53678;39.642;22.430;2022-08-18T02:58:52;24.47;56.26
65478;SHT31;53678;39.642;22.430;2022-08-18T03:01:20;24.84;55.12
65478;SHT31;53678;39.642;22.430;2022-08-18T03:03:47;24.80;55.49
65478;SHT31;53678;39.642;22.430;2022-08-18T03:06:13;24.74;55.56
65478;SHT31;53678;39.642;22.430;2022-08-18T03:08:39;24.80;55.41
65478;SHT31;53678;39.642;22.430;2022-08-18T03:11:05;24.70;55.31
65478;SHT31;53678;39.642;22.430;2022-08-18T03:13:31;23.95;57.45
65478;SHT31;53678;39.642;22.430;2022-08-18T03:15:56;24.02;57.54
65478;SHT31;53678;39.642;22.430;2022-08-18T03:18:22;24.16;58.41
65478;SHT31;53678;39.642;22.430;2022-08-18T03:20:49;23.75;60.01
65478;SHT31;53678;39.642;22.430;2022-08-18T03:23:15;24.06;59.03
65478;SHT31;53678;39.642;22.430;2022-08-18T03:25:46;24.09;59.08
65478;SHT31;53678;39.642;22.430;2022-08-18T03:28:14;24.09;59.17
65478;SHT31;53678;39.642;22.430;2022-08-18T03:30:41;24.05;58.85
65478;SHT31;53678;39.642;22.430;2022-08-18T03:33:08;24.16;57.77
65478;SHT31;53678;39.642;22.430;2022-08-18T03:35:35;24.30;57.21
65478;SHT31;53678;39.642;22.430;2022-08-18T03:38:02;24.47;56.89
65478;SHT31;53678;39.642;22.430;2022-08-18T03:40:28;24.49;57.36
65478;SHT31;53678;39.642;22.430;2022-08-18T03:42:54;24.47;57.56
65478;SHT31;53678;39.642;22.430;2022-08-18T03:45:20;24.49;58.16
65478;SHT31;53678;39.642;22.430;2022-08-18T03:47:47;23.96;60.24
65478;SHT31;53678;39.642;22.430;2022-08-18T03:50:17;24.12;60.07
65478;SHT31;53678;39.642;22.430;2022-08-18T03:52:44;24.24;59.52
65478;SHT31;53678;39.642;22.430;2022-08-18T03:55:14;24.49;59.18
65478;SHT31;53678;39.642;22.430;2022-08-18T03:57:42;24.82;58.15
65478;SHT31;53678;39.642;22.430;2022-08-18T04:00:09;25.02;57.69
65478;SHT31;53678;39.642;22.430;2022-08-18T04:02:37;25.39;57.11
65478;SHT31;53678;39.642;22.430;2022-08-18T04:05:04;25.81;55.93
65478;SHT31;53678;39.642;22.430;2022-08-18T04:07:29;25.97;55.44
65478;SHT31;53678;39.642;22.430;2022-08-18T04:09:56;26.25;54.83
65478;SHT31;53678;39.642;22.430;2022-08-18T04:12:22;26.55;54.44
65478;SHT31;53678;39.642;22.430;2022-08-18T04:14:48;26.68;54.03
65478;SHT31;53678;39.642;22.430;2022-08-18T04:17:19;27.85;50.81
65478;SHT31;53678;39.642;22.430;2022-08-18T04:19:54;28.36;48.65
65478;SHT31;53678;39.642;22.430;2022-08-18T04:22:20;28.57;47.97
65478;SHT31;53678;39.642;22.430;2022-08-18T04:24:48;28.86;47.31
65478;SHT31;53678;39.642;22.430;2022-08-18T04:27:15;29.25;46.78
65478;SHT31;53678;39.642;22.430;2022-08-18T04:29:41;29.66;45.77
65478;SHT31;53678;39.642;22.430;2022-08-18T04:32:07;29.38;46.26
65478;SHT31;53678;39.642;22.430;2022-08-18T04:34:33;29.25;46.72
65478;SHT31;53678;39.642;22.430;2022-08-18T04:37:00;30.52;43.99
65478;SHT31;53678;39.642;22.430;2022-08-18T04:39:27;30.42;44.02
65478;SHT31;53678;39.642;22.430;2022-08-18T04:41:53;29.26;46.27
65478;SHT31;53678;39.642;22.430;2022-08-18T04:44:20;29.16;46.60
65478;SHT31;53678;39.642;22.430;2022-08-18T04:46:48;30.23;44.55
65478;SHT31;53678;39.642;22.430;2022-08-18T04:49:15;30.63;43.79
65478;SHT31;53678;39.642;22.430;2022-08-18T04:51:47;30.52;44.04
65478;SHT31;53678;39.642;22.430;2022-08-18T04:54:33;30.24;44.51
65478;SHT31;53678;39.642;22.430;2022-08-18T04:57:13;30.31;44.52
65478;SHT31;53678;39.642;22.430;2022-08-18T04:59:42;30.36;44.75
65478;SHT31;53678;39.642;22.430;2022-08-18T05:02:09;30.82;43.81
65478;SHT31;53678;39.642;22.430;2022-08-18T05:04:37;31.17;43.58
65478;SHT31;53678;39.642;22.430;2022-08-18T05:07:04;31.60;42.75
65478;SHT31;53678;39.642;22.430;2022-08-18T05:09:31;32.25;41.48
65478;SHT31;53678;39.642;22.430;2022-08-18T05:11:57;32.30;41.05
65478;SHT31;53678;39.642;22.430;2022-08-18T05:14:22;32.22;41.37
65478;SHT31;53678;39.642;22.430;2022-08-18T05:16:49;30.28;44.96
65478;SHT31;53678;39.642;22.430;2022-08-18T05:19:18;32.22;41.60
65478;SHT31;53678;39.642;22.430;2022-08-18T05:21:48;32.84;40.36
65478;SHT31;53678;39.642;22.430;2022-08-18T05:24:14;33.01;39.82
65478;SHT31;53678;39.642;22.430;2022-08-18T05:26:40;32.50;40.53
65478;SHT31;53678;39.642;22.430;2022-08-18T05:29:06;32.30;40.79
65478;SHT31;53678;39.642;22.430;2022-08-18T05:31:33;32.57;40.52
65478;SHT31;53678;39.642;22.430;2022-08-18T05:33:59;32.64;40.63
65478;SHT31;53678;39.642;22.430;2022-08-18T05:41:45;32.92;39.71
65478;SHT31;53678;39.642;22.430;2022-08-18T05:44:18;32.63;40.37
65478;SHT31;53678;39.642;22.430;2022-08-18T05:46:49;32.53;40.71
65478;SHT31;53678;39.642;22.430;2022-08-18T05:49:18;32.57;40.84
65478;SHT31;53678;39.642;22.430;2022-08-18T05:51:47;32.55;40.63
65478;SHT31;53678;39.642;22.430;2022-08-18T05:54:15;32.83;40.29
65478;SHT31;53678;39.642;22.430;2022-08-18T05:57:20;33.03;40.14
65478;SHT31;53678;39.642;22.430;2022-08-18T05:59:49;33.26;39.92
65478;SHT31;53678;39.642;22.430;2022-08-18T06:04:59;33.12;40.48
65478;SHT31;53678;39.642;22.430;2022-08-18T06:08:13;33.03;40.50
65478;SHT31;53678;39.642;22.430;2022-08-18T06:10:18;32.91;40.79
65478;SHT31;53678;39.642;22.430;2022-08-18T06:12:50;32.77;40.72
65478;SHT31;53678;39.642;22.430;2022-08-18T06:15:39;32.76;40.60
65478;SHT31;53678;39.642;22.430;2022-08-18T06:32:02;31.72;41.77
65478;SHT31;53678;39.642;22.430;2022-08-18T06:41:17;31.44;41.89
65478;SHT31;53678;39.642;22.430;2022-08-18T06:44:09;31.61;41.68
65478;SHT31;53678;39.642;22.430;2022-08-18T06:46:48;31.52;41.01
65478;SHT31;53678;39.642;22.430;2022-08-18T06:49:36;31.60;41.23
65478;SHT31;53678;39.642;22.430;2022-08-18T06:52:27;31.75;41.06
65478;SHT31;53678;39.642;22.430;2022-08-18T06:54:59;31.74;41.57
65478;SHT31;53678;39.642;22.430;2022-08-18T07:00:03;32.01;41.05
65478;SHT31;53678;39.642;22.430;2022-08-18T07:02:44;32.61;40.36
65478;SHT31;53678;39.642;22.430;2022-08-18T07:05:18;33.14;39.48
65478;SHT31;53678;39.642;22.430;2022-08-18T07:07:45;33.35;38.94
65478;SHT31;53678;39.642;22.430;2022-08-18T07:12:40;32.33;40.86
65478;SHT31;53678;39.642;22.430;2022-08-18T07:15:06;31.41;42.50
65478;SHT31;53678;39.642;22.430;2022-08-18T07:17:37;31.98;41.48
65478;SHT31;53678;39.642;22.430;2022-08-18T07:20:18;31.45;42.09
65478;SHT31;53678;39.642;22.430;2022-08-18T07:22:54;32.32;41.01
65478;SHT31;53678;39.642;22.430;2022-08-18T07:25:24;33.14;39.00
65478;SHT31;53678;39.642;22.430;2022-08-18T07:27:51;32.26;39.86
65478;SHT31;53678;39.642;22.430;2022-08-18T07:30:36;33.21;38.67
65478;SHT31;53678;39.642;22.430;2022-08-18T07:33:19;32.15;40.44
65478;SHT31;53678;39.642;22.430;2022-08-18T07:35:53;32.76;39.84
65478;SHT31;53678;39.642;22.430;2022-08-18T07:38:35;32.77;39.58
65478;SHT31;53678;39.642;22.430;2022-08-18T07:47:02;33.99;37.91
65478;SHT31;53678;39.642;22.430;2022-08-18T07:49:35;34.57;37.35
65478;SHT31;53678;39.642;22.430;2022-08-18T07:52:03;34.54;36.58
65478;SHT31;53678;39.642;22.430;2022-08-18T07:54:49;34.48;36.97
65478;SHT31;53678;39.642;22.430;2022-08-18T08:00:13;34.07;38.52
65478;SHT31;53678;39.642;22.430;2022-08-18T08:11:08;34.54;37.69
65478;SHT31;53678;39.642;22.430;2022-08-18T08:13:51;34.75;37.50
65478;SHT31;53678;39.642;22.430;2022-08-18T08:16:32;34.78;37.02
65478;SHT31;53678;39.642;22.430;2022-08-18T08:21:45;33.82;37.63
65478;SHT31;53678;39.642;22.430;2022-08-18T08:24:22;34.37;35.49
65478;SHT31;53678;39.642;22.430;2022-08-18T08:27:19;34.85;35.77
65478;SHT31;53678;39.642;22.430;2022-08-18T08:30:11;34.38;35.94
65478;SHT31;53678;39.642;22.430;2022-08-18T08:35:20;35.26;35.04
65478;SHT31;53678;39.642;22.430;2022-08-18T08:41:18;35.09;35.39
65478;SHT31;53678;39.642;22.430;2022-08-18T08:44:00;34.72;35.77
65478;SHT31;53678;39.642;22.430;2022-08-18T08:46:28;35.06;35.33
65478;SHT31;53678;39.642;22.430;2022-08-18T08:49:02;35.19;35.28
65478;SHT31;53678;39.642;22.430;2022-08-18T08:51:35;35.58;34.91
65478;SHT31;53678;39.642;22.430;2022-08-18T08:54:26;35.67;34.20
65478;SHT31;53678;39.642;22.430;2022-08-18T08:56:54;35.57;34.08
65478;SHT31;53678;39.642;22.430;2022-08-18T08:59:22;35.63;34.42
65478;SHT31;53678;39.642;22.430;2022-08-18T09:05:10;35.10;34.85
65478;SHT31;53678;39.642;22.430;2022-08-18T09:15:58;35.50;33.04
65478;SHT31;53678;39.642;22.430;2022-08-18T09:26:53;35.40;33.99
65478;SHT31;53678;39.642;22.430;2022-08-18T09:37:49;35.50;33.24
65478;SHT31;53678;39.642;22.430;2022-08-18T09:40:33;34.94;33.57
65478;SHT31;53678;39.642;22.430;2022-08-18T09:43:35;35.02;33.36
65478;SHT31;53678;39.642;22.430;2022-08-18T09:46:03;35.12;33.52
65478;SHT31;53678;39.642;22.430;2022-08-18T09:48:32;34.84;33.85
65478;SHT31;53678;39.642;22.430;2022-08-18T09:51:14;35.30;33.49
65478;SHT31;53678;39.642;22.430;2022-08-18T10:02:02;35.91;32.93
65478;SHT31;53678;39.642;22.430;2022-08-18T10:04:42;35.93;32.70
65478;SHT31;53678;39.642;22.430;2022-08-18T10:07:35;36.14;32.46
65478;SHT31;53678;39.642;22.430;2022-08-18T10:10:24;36.12;32.23
65478;SHT31;53678;39.642;22.430;2022-08-18T10:15:35;35.78;32.39
65478;SHT31;53678;39.642;22.430;2022-08-18T10:21:00;35.91;31.62
65478;SHT31;53678;39.642;22.430;2022-08-18T10:23:51;36.00;31.94
65478;SHT31;53678;39.642;22.430;2022-08-18T10:31:32;36.04;31.56
65478;SHT31;53678;39.642;22.430;2022-08-18T10:39:46;36.02;31.54
65478;SHT31;53678;39.642;22.430;2022-08-18T10:45:05;36.27;31.32
65478;SHT31;53678;39.642;22.430;2022-08-18T10:47:32;36.11;31.26
65478;SHT31;53678;39.642;22.430;2022-08-18T10:50:00;35.73;31.87
65478;SHT31;53678;39.642;22.430;2022-08-18T11:00:44;36.48;30.88
65478;SHT31;53678;39.642;22.430;2022-08-18T11:03:22;36.02;31.34
65478;SHT31;53678;39.642;22.430;2022-08-18T11:06:03;36.08;31.73
65478;SHT31;53678;39.642;22.430;2022-08-18T11:08:34;36.45;30.99
65478;SHT31;53678;39.642;22.430;2022-08-18T11:11:07;36.68;30.80
65478;SHT31;53678;39.642;22.430;2022-08-18T11:13:55;36.51;30.85
65478;SHT31;53678;39.642;22.430;2022-08-18T11:16:58;36.48;30.98
65478;SHT31;53678;39.642;22.430;2022-08-18T11:19:26;36.83;30.98
65478;SHT31;53678;39.642;22.430;2022-08-18T11:21:53;36.86;30.79
65478;SHT31;53678;39.642;22.430;2022-08-18T11:24:28;36.14;31.05
65478;SHT31;53678;39.642;22.430;2022-08-18T11:27:02;36.29;30.82
65478;SHT31;53678;39.642;22.430;2022-08-18T11:39:55;36.15;31.61
65478;SHT31;53678;39.642;22.430;2022-08-18T11:42:32;36.38;31.14
65478;SHT31;53678;39.642;22.430;2022-08-18T11:45:19;36.56;30.84
65478;SHT31;53678;39.642;22.430;2022-08-18T11:53:36;36.32;31.17
65478;SHT31;53678;39.642;22.430;2022-08-18T11:56:10;36.39;31.38
65478;SHT31;53678;39.642;22.430;2022-08-18T11:58:51;36.79;31.08
65478;SHT31;53678;39.642;22.430;2022-08-18T12:04:22;37.23;30.66
65478;SHT31;53678;39.642;22.430;2022-08-18T12:12:12;37.11;30.27
65478;SHT31;53678;39.642;22.430;2022-08-18T12:17:22;37.17;30.09
65478;SHT31;53678;39.642;22.430;2022-08-18T12:19:48;37.03;29.96
65478;SHT31;53678;39.642;22.430;2022-08-18T12:22:17;36.91;30.10
65478;SHT31;53678;39.642;22.430;2022-08-18T12:24:44;36.99;30.08
65478;SHT31;53678;39.642;22.430;2022-08-18T12:27:13;36.90;30.56
65478;SHT31;53678;39.642;22.430;2022-08-18T12:29:40;36.66;30.71
65478;SHT31;53678;39.642;22.430;2022-08-18T12:32:06;36.02;31.41
65478;SHT31;53678;39.642;22.430;2022-08-18T12:34:32;36.48;30.43
65478;SHT31;53678;39.642;22.430;2022-08-18T12:36:59;36.69;30.35
65478;SHT31;53678;39.642;22.430;2022-08-18T12:39:30;36.69;30.26
65478;SHT31;53678;39.642;22.430;2022-08-18T12:41:58;36.78;30.23
65478;SHT31;53678;39.642;22.430;2022-08-18T12:44:24;35.94;31.90
65478;SHT31;53678;39.642;22.430;2022-08-18T12:46:50;36.05;31.68
65478;SHT31;53678;39.642;22.430;2022-08-18T12:49:19;35.88;31.27
65478;SHT31;53678;39.642;22.430;2022-08-18T12:51:46;36.12;30.74
65478;SHT31;53678;39.642;22.430;2022-08-18T12:54:13;36.39;30.53
65478;SHT31;53678;39.642;22.430;2022-08-18T12:56:40;36.51;30.52
65478;SHT31;53678;39.642;22.430;2022-08-18T12:59:09;36.38;31.01
65478;SHT31;53678;39.642;22.430;2022-08-18T13:01:36;36.04;31.21
65478;SHT31;53678;39.642;22.430;2022-08-18T13:04:03;36.36;30.58
65478;SHT31;53678;39.642;22.430;2022-08-18T13:06:32;36.52;30.79
65478;SHT31;53678;39.642;22.430;2022-08-18T13:08:59;36.59;30.53
65478;SHT31;53678;39.642;22.430;2022-08-18T13:11:25;36.94;29.82
65478;SHT31;53678;39.642;22.430;2022-08-18T13:20:15;37.26;28.54
65478;SHT31;53678;39.642;22.430;2022-08-18T13:22:42;37.18;28.74
65478;SHT31;53678;39.642;22.430;2022-08-18T13:25:11;36.93;28.88
65478;SHT31;53678;39.642;22.430;2022-08-18T13:27:37;36.94;29.32
65478;SHT31;53678;39.642;22.430;2022-08-18T13:30:07;36.93;29.34
65478;SHT31;53678;39.642;22.430;2022-08-18T13:32:34;37.18;29.38
65478;SHT31;53678;39.642;22.430;2022-08-18T13:35:03;37.34;29.07
65478;SHT31;53678;39.642;22.430;2022-08-18T13:37:35;37.42;29.30
65478;SHT31;53678;39.642;22.430;2022-08-18T13:40:02;37.41;29.04
65478;SHT31;53678;39.642;22.430;2022-08-18T13:42:28;37.42;29.09
65478;SHT31;53678;39.642;22.430;2022-08-18T13:44:57;37.44;28.42
65478;SHT31;53678;39.642;22.430;2022-08-18T13:47:25;37.27;28.56
65478;SHT31;53678;39.642;22.430;2022-08-18T13:49:56;36.73;29.43
65478;SHT31;53678;39.642;22.430;2022-08-18T13:52:22;36.97;29.17
65478;SHT31;53678;39.642;22.430;2022-08-18T13:54:48;37.18;28.99
65478;SHT31;53678;39.642;22.430;2022-08-18T13:57:14;37.16;28.74
65478;SHT31;53678;39.642;22.430;2022-08-18T13:59:39;37.30;28.56
65478;SHT31;53678;39.642;22.430;2022-08-18T14:02:08;37.39;28.87
65478;SHT31;53678;39.642;22.430;2022-08-18T14:04:35;36.91;29.58
65478;SHT31;53678;39.642;22.430;2022-08-18T14:07:04;37.06;29.67
65478;SHT31;53678;39.642;22.430;2022-08-18T14:09:30;37.27;29.67
65478;SHT31;53678;39.642;22.430;2022-08-18T14:11:57;36.62;30.30
65478;SHT31;53678;39.642;22.430;2022-08-18T14:14:23;36.70;29.63
65478;SHT31;53678;39.642;22.430;2022-08-18T14:16:49;36.46;29.79
65478;SHT31;53678;39.642;22.430;2022-08-18T14:19:15;36.84;29.51
65478;SHT31;53678;39.642;22.430;2022-08-18T14:22:00;36.93;29.40
65478;SHT31;53678;39.642;22.430;2022-08-18T14:24:44;36.72;29.76
65478;SHT31;53678;39.642;22.430;2022-08-18T14:27:32;36.29;30.36
65478;SHT31;53678;39.642;22.430;2022-08-18T14:30:06;36.15;30.51
65478;SHT31;53678;39.642;22.430;2022-08-18T14:32:32;36.12;30.42
65478;SHT31;53678;39.642;22.430;2022-08-18T14:35:00;36.18;30.48
65478;SHT31;53678;39.642;22.430;2022-08-18T14:37:28;36.28;30.57
65478;SHT31;53678;39.642;22.430;2022-08-18T14:39:54;36.35;31.36
65478;SHT31;53678;39.642;22.430;2022-08-18T14:42:21;36.49;31.62
65478;SHT31;53678;39.642;22.430;2022-08-18T14:44:47;36.53;30.73
65478;SHT31;53678;39.642;22.430;2022-08-18T14:47:14;36.01;31.37
65478;SHT31;53678;39.642;22.430;2022-08-18T14:49:40;36.31;30.99
65478;SHT31;53678;39.642;22.430;2022-08-18T14:52:08;36.22;31.52
65478;SHT31;53678;39.642;22.430;2022-08-18T14:54:35;36.27;31.70
65478;SHT31;53678;39.642;22.430;2022-08-18T14:57:01;36.20;31.99
65478;SHT31;53678;39.642;22.430;2022-08-18T14:59:28;35.95;32.30
65478;SHT31;53678;39.642;22.430;2022-08-18T15:01:56;36.24;31.67
65478;SHT31;53678;39.642;22.430;2022-08-18T15:04:22;36.18;31.53
65478;SHT31;53678;39.642;22.430;2022-08-18T15:06:49;36.11;31.29
65478;SHT31;53678;39.642;22.430;2022-08-18T15:09:15;36.04;31.30
65478;SHT31;53678;39.642;22.430;2022-08-18T15:11:41;36.00;31.11
65478;SHT31;53678;39.642;22.430;2022-08-18T15:14:07;36.09;31.02
65478;SHT31;53678;39.642;22.430;2022-08-18T15:16:33;36.11;31.18
65478;SHT31;53678;39.642;22.430;2022-08-18T15:19:00;36.29;31.37
65478;SHT31;53678;39.642;22.430;2022-08-18T15:21:27;36.02;32.30
65478;SHT31;53678;39.642;22.430;2022-08-18T15:24:12;36.02;33.00
65478;SHT31;53678;39.642;22.430;2022-08-18T15:26:57;35.93;33.59
65478;SHT31;53678;39.642;22.430;2022-08-18T15:29:24;36.01;33.82
65478;SHT31;53678;39.642;22.430;2022-08-18T15:31:49;35.93;33.65
65478;SHT31;53678;39.642;22.430;2022-08-18T15:34:17;36.04;33.66
65478;SHT31;53678;39.642;22.430;2022-08-18T15:36:43;36.04;33.47
65478;SHT31;53678;39.642;22.430;2022-08-18T15:39:08;36.00;33.11
65478;SHT31;53678;39.642;22.430;2022-08-18T15:41:38;36.11;33.35
65478;SHT31;53678;39.642;22.430;2022-08-18T15:44:07;35.95;33.09
65478;SHT31;53678;39.642;22.430;2022-08-18T15:46:36;35.98;33.48
65478;SHT31;53678;39.642;22.430;2022-08-18T15:49:03;35.78;33.63
65478;SHT31;53678;39.642;22.430;2022-08-18T15:51:31;35.69;33.82
65478;SHT31;53678;39.642;22.430;2022-08-18T15:53:58;35.53;33.26
65478;SHT31;53678;39.642;22.430;2022-08-18T15:56:24;35.53;33.49
65478;SHT31;53678;39.642;22.430;2022-08-18T15:58:51;35.49;33.90
65478;SHT31;53678;39.642;22.430;2022-08-18T16:01:18;35.42;33.81
65478;SHT31;53678;39.642;22.430;2022-08-18T16:03:46;35.36;34.16
65478;SHT31;53678;39.642;22.430;2022-08-18T16:06:18;35.17;34.34
65478;SHT31;53678;39.642;22.430;2022-08-18T16:08:44;35.10;34.02
65478;SHT31;53678;39.642;22.430;2022-08-18T16:11:12;34.99;33.79
65478;SHT31;53678;39.642;22.430;2022-08-18T16:13:39;34.77;34.07
65478;SHT31;53678;39.642;22.430;2022-08-18T16:16:10;34.77;34.18
65478;SHT31;53678;39.642;22.430;2022-08-18T16:18:37;34.74;33.50
65478;SHT31;53678;39.642;22.430;2022-08-18T16:21:05;34.77;33.91
65478;SHT31;53678;39.642;22.430;2022-08-18T16:23:41;34.69;33.94
65478;SHT31;53678;39.642;22.430;2022-08-18T16:26:10;34.64;33.40
65478;SHT31;53678;39.642;22.430;2022-08-18T16:28:45;34.48;33.70
65478;SHT31;53678;39.642;22.430;2022-08-18T16:31:12;34.36;34.06
65478;SHT31;53678;39.642;22.430;2022-08-18T16:33:41;34.36;33.87
65478;SHT31;53678;39.642;22.430;2022-08-18T16:36:09;34.23;33.55
65478;SHT31;53678;39.642;22.430;2022-08-18T16:38:36;34.14;33.54
65478;SHT31;53678;39.642;22.430;2022-08-18T16:41:04;34.06;33.92
65478;SHT31;53678;39.642;22.430;2022-08-18T16:43:32;33.99;33.98
65478;SHT31;53678;39.642;22.430;2022-08-18T16:45:58;34.00;33.64
65478;SHT31;53678;39.642;22.430;2022-08-18T16:48:26;33.83;33.60
65478;SHT31;53678;39.642;22.430;2022-08-18T16:50:52;33.90;33.51
65478;SHT31;53678;39.642;22.430;2022-08-18T16:53:17;33.72;33.51
65478;SHT31;53678;39.642;22.430;2022-08-18T16:55:43;33.62;33.44
65478;SHT31;53678;39.642;22.430;2022-08-18T16:58:09;33.68;33.47
65478;SHT31;53678;39.642;22.430;2022-08-18T17:00:55;33.63;33.41
65478;SHT31;53678;39.642;22.430;2022-08-18T17:03:39;33.65;33.45
65478;SHT31;53678;39.642;22.430;2022-08-18T17:06:24;33.51;33.46
65478;SHT31;53678;39.642;22.430;2022-08-18T17:08:54;33.45;33.33
65478;SHT31;53678;39.642;22.430;2022-08-18T17:11:21;33.28;33.41
65478;SHT31;53678;39.642;22.430;2022-08-18T17:13:49;33.22;33.50
65478;SHT31;53678;39.642;22.430;2022-08-18T17:16:18;33.15;33.48
65478;SHT31;53678;39.642;22.430;2022-08-18T17:18:44;33.07;33.79
65478;SHT31;53678;39.642;22.430;2022-08-18T17:21:17;33.01;33.51
65478;SHT31;53678;39.642;22.430;2022-08-18T17:23:43;33.05;33.31
65478;SHT31;53678;39.642;22.430;2022-08-18T17:31:40;32.94;33.66
65478;SHT31;53678;39.642;22.430;2022-08-18T17:34:11;32.95;33.65
65478;SHT31;53678;39.642;22.430;2022-08-18T17:36:46;32.80;33.79
65478;SHT31;53678;39.642;22.430;2022-08-18T17:39:13;32.92;33.55
65478;SHT31;53678;39.642;22.430;2022-08-18T17:41:41;32.83;33.65
65478;SHT31;53678;39.642;22.430;2022-08-18T17:44:26;32.87;33.65
65478;SHT31;53678;39.642;22.430;2022-08-18T17:46:53;32.80;33.48
65478;SHT31;53678;39.642;22.430;2022-08-18T17:52:12;32.84;33.56
65478;SHT31;53678;39.642;22.430;2022-08-18T17:54:43;32.61;33.29
65478;SHT31;53678;39.642;22.430;2022-08-18T17:57:18;32.60;33.36
65478;SHT31;53678;39.642;22.430;2022-08-18T18:00:06;32.64;33.51
65478;SHT31;53678;39.642;22.430;2022-08-18T18:02:40;32.76;33.36
65478;SHT31;53678;39.642;22.430;2022-08-18T18:11:34;32.76;33.55
65478;SHT31;53678;39.642;22.430;2022-08-18T18:14:22;32.57;34.26
65478;SHT31;53678;39.642;22.430;2022-08-18T18:17:19;32.61;34.40
65478;SHT31;53678;39.642;22.430;2022-08-18T18:19:54;32.63;34.62
65478;SHT31;53678;39.642;22.430;2022-08-18T18:22:24;32.56;34.91
65478;SHT31;53678;39.642;22.430;2022-08-18T18:25:00;32.40;35.20
65478;SHT31;53678;39.642;22.430;2022-08-18T18:27:38;32.39;35.21
65478;SHT31;53678;39.642;22.430;2022-08-18T18:33:00;32.37;35.11
65478;SHT31;53678;39.642;22.430;2022-08-18T18:35:53;32.25;35.18